Flight Track Log - Related Links

Times and Time Zones

All times are in EDT time to prevent confusion due to time zone crossing. See the FLG3780 flight status page for this flight to view local times or setup timezone preferences in your user account.


Time Position Orientation Groundspeed Altitude Reporting Facility
EDT Latitude Longitude Course Direction KTS MPH feet Rate Location/Type
Sun 09:28:34 AM 42.7278 -73.8081 283° West 145 167 1,200  Level Boston Center
Sun 09:29:23 AM 42.6903 -73.8072 179° South 175 201 2,500 1,691 Climbing Boston Center
Sun 09:30:24 AM 42.6583 -73.8658 233° Southwest 257 296 4,300 2,000 Climbing Boston Center
Sun 09:31:00 AM 42.8127 -74.1885 281° West  Level FlightAware Approximate
Sun 09:31:02 AM 42.6847 -73.9117 308° West 284 327 5,800  Level Boston Center
Sun 09:32:00 AM 42.8318 -74.3223 281° West  Level FlightAware Approximate
Sun 09:32:02 AM 42.7358 -73.9919 311° West 284 327 8,700  Level Boston Center
Sun 09:33:00 AM 42.8537 -74.4554 283° West  Level FlightAware Approximate
Sun 09:33:02 AM 42.7969 -74.0814 313° West 284 327 10,800  Level Boston Center
Sun 09:34:02 AM 42.8581 -74.1819 310° West 315 362 12,400 1,700 Climbing Boston Center
Sun 09:35:02 AM 42.9253 -74.2861 311° West 359 413 14,200 1,600 Climbing Boston Center
Sun 09:36:02 AM 42.9858 -74.3986 306° West 373 429 15,600 1,500 Climbing Boston Center
Sun 09:37:02 AM 42.9978 -74.5467 276° West 384 442 17,200 1,300 Climbing Boston Center
Sun 09:38:02 AM 43.0117 -74.6975 277° West 389 448 18,200 1,200 Climbing Boston Center
Sun 09:39:02 AM 43.0292 -74.8517 279° West 399 459 19,600 1,300 Climbing Boston Center
Sun 09:40:02 AM 43.0425 -75.0056 277° West 410 472 20,800 1,200 Climbing Boston Center
Sun 09:41:02 AM 43.0600 -75.1569 279° West 410 472 22,000 1,100 Climbing Boston Center
Sun 09:42:02 AM 43.0750 -75.3139 278° West 410 472 23,000 1,000 Climbing Boston Center
Sun 09:43:02 AM 43.0917 -75.4739 278° West 416 479 24,000 1,000 Climbing Boston Center
Sun 09:44:02 AM 43.1061 -75.6311 277° West 416 479 25,000 1,000 Climbing Boston Center
Sun 09:45:02 AM 43.1222 -75.7886 278° West 416 479 26,000 800 Climbing Boston Center
Sun 09:46:02 AM 43.1369 -75.9289 278° West 421 484 26,600 674 Climbing Boston Center
Sun 09:48:00 AM 43.1583 -76.2425 275° West 438 504 28,000 472 Climbing Cleveland Center
Sun 09:49:00 AM 43.1414 -76.4089 262° West 438 504 28,000  Level Cleveland Center
Sun 09:50:00 AM 43.1289 -76.5803 264° West 449 517 28,000  Level Cleveland Center
Sun 09:51:00 AM 43.1119 -76.7636 263° West 449 517 28,000  Level Cleveland Center
Sun 09:52:00 AM 43.0969 -76.9408 263° West 449 517 28,000  Level Cleveland Center
Sun 09:53:00 AM 43.0814 -77.1094 263° West 454 522 28,000  Level Cleveland Center
Sun 09:54:00 AM 43.0653 -77.2781 263° West 454 522 28,000  Level Cleveland Center
Sun 09:55:00 AM 43.0492 -77.4494 263° West 454 522 28,000  Level Cleveland Center
Sun 09:56:00 AM 43.0331 -77.6208 263° West 454 522 28,000  Level Cleveland Center
Sun 09:57:00 AM 43.0164 -77.7892 262° West 449 517 28,000  Level Cleveland Center
Sun 09:58:00 AM 42.9994 -77.9572 262° West 449 517 28,000  Level Cleveland Center
Sun 09:59:00 AM 42.9822 -78.1283 262° West 449 517 28,000  Level Cleveland Center
Sun 10:00:00 AM 42.9669 -78.2964 263° West 454 522 28,000  Level Cleveland Center
Sun 10:01:00 AM 42.9494 -78.4644 262° West 449 517 28,000  Level Cleveland Center
Sun 10:02:00 AM 42.9333 -78.6208 262° West 449 517 28,000  Level Cleveland Center
Sun 10:03:00 AM 42.9111 -78.7861 260° West 454 522 28,000  Level Cleveland Center
Sun 10:04:00 AM 42.8864 -78.9511 258° West 449 517 28,000  Level Cleveland Center
Sun 10:05:00 AM 42.8636 -79.1161 259° West 449 517 28,000  Level Cleveland Center
Sun 10:06:00 AM 42.8425 -79.2806 260° West 449 517 28,000  Level Cleveland Center
Sun 10:07:00 AM 42.8131 -79.4456 256° West 449 517 28,000  Level Cleveland Center
Sun 10:08:00 AM 42.7897 -79.6100 259° West 449 517 28,000  Level Cleveland Center
Sun 10:09:00 AM 42.7639 -79.7744 258° West 449 517 28,000  Level Cleveland Center
Sun 10:10:00 AM 42.7503 -79.9386 264° West 449 517 28,000  Level Cleveland Center
Sun 10:11:00 AM 42.7406 -80.1083 266° West 449 517 28,000  Level Cleveland Center
Sun 10:12:00 AM 42.7308 -80.2892 266° West 449 517 28,000  Level Cleveland Center
Sun 10:13:00 AM 42.7247 -80.4589 267° West 449 517 28,000  Level Cleveland Center
Sun 10:14:00 AM 42.7186 -80.6256 267° West 443 510 28,000  Level Cleveland Center
Sun 10:15:00 AM 42.7100 -80.7950 266° West 443 510 28,000  Level Cleveland Center
Sun 10:16:00 AM 42.6972 -80.9617 264° West 443 510 28,000 -400 Level Cleveland Center
Sun 10:17:00 AM 42.6778 -81.1283 261° West 448 516 27,200 -1,150 Descending Cleveland Center
Sun 10:18:00 AM 42.6603 -81.2947 262° West 448 516 25,700 -1,550 Descending Cleveland Center
Sun 10:19:00 AM 42.6403 -81.4608 261° West 448 516 24,100 -1,550 Descending Cleveland Center
Sun 10:20:00 AM 42.6222 -81.6217 261° West 443 510 22,600 -1,450 Descending Cleveland Center
Sun 10:21:00 AM 42.6019 -81.7736 260° West 448 516 21,200 -1,800 Descending Cleveland Center
Sun 10:22:00 AM 42.5814 -81.9481 261° West 443 510 19,000 -1,950 Descending Cleveland Center
Sun 10:23:00 AM 42.5628 -82.0997 261° West 438 504 17,300 -1,800 Descending Cleveland Center
Sun 10:24:00 AM 42.5439 -82.2514 260° West 420 483 15,400 -1,900 Descending Cleveland Center
Sun 10:25:00 AM 42.5250 -82.4003 260° West 414 476 13,500 -1,931 Descending Cleveland Center
Sun 10:25:27 AM 42.5175 -82.4733 262° West 394 453 12,600 -1,500 Descending Cleveland Center
Sun 10:26:00 AM 42.5058 -82.5461 258° West 409 471 12,000 -590 Descending Cleveland Center
Sun 10:26:28 AM 42.4881 -82.6106 250° West 381 438 12,000  Level Cleveland Center
Sun 10:27:00 AM 42.4619 -82.6744 241° Southwest 390 449 12,000  Level Cleveland Center
Sun 10:27:29 AM 42.4400 -82.7383 245° Southwest 374 430 12,000  Level Cleveland Center
Sun 10:28:00 AM 42.4158 -82.7994 242° Southwest 385 443 12,000  Level Cleveland Center
Sun 10:28:24 AM 42.3981 -82.8550 247° West 375 432 12,000  Level Cleveland Center
Sun 10:29:00 AM 42.3697 -82.9242 241° Southwest 380 437 12,000  Level Cleveland Center
Sun 10:29:25 AM 42.3539 -82.9800 249° West 376 433 12,000  Level Cleveland Center
Sun 10:30:00 AM 42.3253 -83.0489 241° Southwest 380 437 12,000  Level Cleveland Center
Sun 10:30:33 AM 42.3053 -83.1128 247° West 303 349 12,000 -300 Level Cleveland Center
Sun 10:31:00 AM 42.2900 -83.1458 238° Southwest 343 395 11,700 -982 Descending Cleveland Center
Sun 10:31:28 AM 42.2622 -83.1728 216° Southwest 233 268 11,100 -700 Descending Cleveland Center
Sun 10:32:00 AM 42.2283 -83.1939 205° Southwest 267 307 11,000 -984 Descending Cleveland Center
Sun 10:32:29 AM 42.2069 -83.2183 220° Southwest 231 266 10,100 -1,800 Descending Cleveland Center
Sun 10:33:00 AM 42.1731 -83.2392 204° Southwest 261 300 9,200 -2,164 Descending Cleveland Center
Sun 10:33:30 AM 42.1475 -83.2689 221° Southwest 240 276 7,900 -2,100 Descending Cleveland Center
Sun 10:34:00 AM 42.1178 -83.2872 205° Southwest 249 287 7,100 -806 Descending Cleveland Center
Sun 10:34:37 AM 42.0858 -83.3167 214° Southwest 213 245 7,000 -61 Descending Cleveland Center
Sun 10:35:38 AM 42.0308 -83.3508 205° Southwest 216 249 7,000 -667 Level Cleveland Center
Sun 10:36:34 AM 41.9881 -83.3936 217° Southwest 222 255 5,700 -1,180 Descending Cleveland Center
Sun 10:37:40 AM 42.0111 -83.4756 291° West 199 229 4,600 -850 Descending Cleveland Center
Sun 10:38:41 AM 42.0553 -83.4581 16° North 178 205 3,900 -836 Descending Cleveland Center
Sun 10:39:42 AM 42.1000 -83.4236 30° Northeast 179 206 2,900 -934 Descending Cleveland Center
Sun 10:40:43 AM 42.1422 -83.3947 27° Northeast 150 173 2,000 -885 Descending Cleveland Center
Sun 10:41:44 AM 42.1764 -83.3683 30° Northeast 145 167 1,100 -885 Descending Cleveland Center

Login

Don't have an account? Register now (free) for customized features, flight alerts, and more!